sensor_id;sensor_type;location;lat;lon;timestamp;P1;durP1;ratioP1;P2;durP2;ratioP2
75548;SDS011;64133;56.002;37.208;2022-12-18T00:01:15;9.40;;;5.17;;
75548;SDS011;64133;56.002;37.208;2022-12-18T00:06:19;8.60;;;4.47;;
75548;SDS011;64133;56.002;37.208;2022-12-18T00:11:24;3.45;;;2.00;;
75548;SDS011;64133;56.002;37.208;2022-12-18T00:16:28;8.48;;;4.80;;
75548;SDS011;64133;56.002;37.208;2022-12-18T00:21:33;5.72;;;3.05;;
75548;SDS011;64133;56.002;37.208;2022-12-18T00:26:38;9.18;;;5.25;;
75548;SDS011;64133;56.002;37.208;2022-12-18T00:31:42;7.28;;;3.37;;
75548;SDS011;64133;56.002;37.208;2022-12-18T00:36:47;8.83;;;4.95;;
75548;SDS011;64133;56.002;37.208;2022-12-18T00:41:51;8.90;;;4.03;;
75548;SDS011;64133;56.002;37.208;2022-12-18T00:47:14;8.45;;;4.72;;
75548;SDS011;64133;56.002;37.208;2022-12-18T00:52:19;8.13;;;4.78;;
75548;SDS011;64133;56.002;37.208;2022-12-18T00:57:23;8.08;;;4.87;;
75548;SDS011;64133;56.002;37.208;2022-12-18T01:02:29;6.83;;;2.83;;
75548;SDS011;64133;56.002;37.208;2022-12-18T01:07:34;13.22;;;5.50;;
75548;SDS011;64133;56.002;37.208;2022-12-18T01:12:38;9.50;;;4.58;;
75548;SDS011;64133;56.002;37.208;2022-12-18T01:17:43;7.67;;;4.10;;
75548;SDS011;64133;56.002;37.208;2022-12-18T01:22:48;9.25;;;4.65;;
75548;SDS011;64133;56.002;37.208;2022-12-18T01:27:52;9.20;;;4.60;;
75548;SDS011;64133;56.002;37.208;2022-12-18T01:32:57;6.92;;;4.17;;
75548;SDS011;64133;56.002;37.208;2022-12-18T01:38:02;7.97;;;4.05;;
75548;SDS011;64133;56.002;37.208;2022-12-18T01:43:08;5.50;;;3.65;;
75548;SDS011;64133;56.002;37.208;2022-12-18T01:48:13;6.58;;;3.85;;
75548;SDS011;64133;56.002;37.208;2022-12-18T01:53:18;10.15;;;5.30;;
75548;SDS011;64133;56.002;37.208;2022-12-18T01:58:23;7.30;;;3.95;;
75548;SDS011;64133;56.002;37.208;2022-12-18T02:03:27;7.10;;;3.55;;
75548;SDS011;64133;56.002;37.208;2022-12-18T02:08:33;7.53;;;4.20;;
75548;SDS011;64133;56.002;37.208;2022-12-18T02:13:38;6.35;;;3.95;;
75548;SDS011;64133;56.002;37.208;2022-12-18T02:18:43;5.70;;;3.77;;
75548;SDS011;64133;56.002;37.208;2022-12-18T02:23:49;9.05;;;4.10;;
75548;SDS011;64133;56.002;37.208;2022-12-18T02:28:53;6.97;;;3.83;;
75548;SDS011;64133;56.002;37.208;2022-12-18T02:33:58;7.55;;;3.30;;
75548;SDS011;64133;56.002;37.208;2022-12-18T02:39:02;5.90;;;3.47;;
75548;SDS011;64133;56.002;37.208;2022-12-18T02:44:08;6.58;;;3.60;;
75548;SDS011;64133;56.002;37.208;2022-12-18T02:49:16;6.62;;;3.22;;
75548;SDS011;64133;56.002;37.208;2022-12-18T02:54:32;9.10;;;4.37;;
75548;SDS011;64133;56.002;37.208;2022-12-18T02:59:38;7.78;;;3.12;;
75548;SDS011;64133;56.002;37.208;2022-12-18T03:04:43;6.50;;;3.52;;
75548;SDS011;64133;56.002;37.208;2022-12-18T03:09:48;5.65;;;3.40;;
75548;SDS011;64133;56.002;37.208;2022-12-18T03:14:53;6.62;;;3.50;;
75548;SDS011;64133;56.002;37.208;2022-12-18T03:19:58;8.18;;;4.12;;
75548;SDS011;64133;56.002;37.208;2022-12-18T03:25:03;6.30;;;3.42;;
75548;SDS011;64133;56.002;37.208;2022-12-18T03:30:09;6.95;;;3.08;;
75548;SDS011;64133;56.002;37.208;2022-12-18T03:35:17;6.05;;;3.17;;
75548;SDS011;64133;56.002;37.208;2022-12-18T03:40:19;8.78;;;2.85;;
75548;SDS011;64133;56.002;37.208;2022-12-18T03:50:29;7.53;;;4.37;;
75548;SDS011;64133;56.002;37.208;2022-12-18T03:55:34;11.60;;;5.50;;
75548;SDS011;64133;56.002;37.208;2022-12-18T04:00:38;8.20;;;3.55;;
75548;SDS011;64133;56.002;37.208;2022-12-18T04:05:52;6.37;;;3.33;;
75548;SDS011;64133;56.002;37.208;2022-12-18T04:10:57;9.53;;;4.40;;
75548;SDS011;64133;56.002;37.208;2022-12-18T04:16:01;6.78;;;3.85;;
75548;SDS011;64133;56.002;37.208;2022-12-18T04:21:06;4.95;;;2.37;;
75548;SDS011;64133;56.002;37.208;2022-12-18T04:26:11;4.80;;;2.95;;
75548;SDS011;64133;56.002;37.208;2022-12-18T04:31:15;6.33;;;2.90;;
75548;SDS011;64133;56.002;37.208;2022-12-18T04:36:20;6.30;;;3.77;;
75548;SDS011;64133;56.002;37.208;2022-12-18T04:41:25;7.10;;;3.20;;
75548;SDS011;64133;56.002;37.208;2022-12-18T04:46:29;4.83;;;2.98;;
75548;SDS011;64133;56.002;37.208;2022-12-18T04:51:34;4.70;;;3.42;;
75548;SDS011;64133;56.002;37.208;2022-12-18T04:56:39;9.20;;;4.60;;
75548;SDS011;64133;56.002;37.208;2022-12-18T05:01:43;6.12;;;3.85;;
75548;SDS011;64133;56.002;37.208;2022-12-18T05:06:48;5.80;;;3.15;;
75548;SDS011;64133;56.002;37.208;2022-12-18T05:11:52;7.10;;;3.95;;
75548;SDS011;64133;56.002;37.208;2022-12-18T05:16:57;7.35;;;4.10;;
75548;SDS011;64133;56.002;37.208;2022-12-18T05:22:02;7.30;;;3.67;;
75548;SDS011;64133;56.002;37.208;2022-12-18T05:27:06;7.20;;;4.15;;
75548;SDS011;64133;56.002;37.208;2022-12-18T05:32:11;5.10;;;2.75;;
75548;SDS011;64133;56.002;37.208;2022-12-18T05:37:16;8.20;;;4.28;;
75548;SDS011;64133;56.002;37.208;2022-12-18T05:42:20;6.83;;;3.90;;
75548;SDS011;64133;56.002;37.208;2022-12-18T05:47:26;4.40;;;2.62;;
75548;SDS011;64133;56.002;37.208;2022-12-18T05:52:31;4.47;;;2.60;;
75548;SDS011;64133;56.002;37.208;2022-12-18T05:57:35;6.10;;;2.70;;
75548;SDS011;64133;56.002;37.208;2022-12-18T06:02:40;5.60;;;3.25;;
75548;SDS011;64133;56.002;37.208;2022-12-18T06:07:45;8.98;;;3.75;;
75548;SDS011;64133;56.002;37.208;2022-12-18T06:12:49;7.08;;;3.25;;
75548;SDS011;64133;56.002;37.208;2022-12-18T06:17:54;7.87;;;3.62;;
75548;SDS011;64133;56.002;37.208;2022-12-18T06:22:59;5.67;;;3.00;;
75548;SDS011;64133;56.002;37.208;2022-12-18T06:28:04;6.75;;;2.92;;
75548;SDS011;64133;56.002;37.208;2022-12-18T06:33:08;8.30;;;3.92;;
75548;SDS011;64133;56.002;37.208;2022-12-18T06:38:13;5.72;;;2.95;;
75548;SDS011;64133;56.002;37.208;2022-12-18T06:43:18;5.87;;;2.95;;
75548;SDS011;64133;56.002;37.208;2022-12-18T06:48:22;6.42;;;3.22;;
75548;SDS011;64133;56.002;37.208;2022-12-18T06:53:27;7.58;;;3.17;;
75548;SDS011;64133;56.002;37.208;2022-12-18T06:58:32;6.70;;;2.72;;
75548;SDS011;64133;56.002;37.208;2022-12-18T07:03:36;6.80;;;2.85;;
75548;SDS011;64133;56.002;37.208;2022-12-18T07:08:41;5.55;;;2.52;;
75548;SDS011;64133;56.002;37.208;2022-12-18T07:13:46;6.25;;;3.67;;
75548;SDS011;64133;56.002;37.208;2022-12-18T07:18:50;5.83;;;2.80;;
75548;SDS011;64133;56.002;37.208;2022-12-18T07:23:55;5.62;;;3.35;;
75548;SDS011;64133;56.002;37.208;2022-12-18T07:29:00;3.50;;;2.40;;
75548;SDS011;64133;56.002;37.208;2022-12-18T07:34:04;4.28;;;2.08;;
75548;SDS011;64133;56.002;37.208;2022-12-18T07:39:10;6.95;;;2.60;;
75548;SDS011;64133;56.002;37.208;2022-12-18T07:44:14;5.47;;;2.65;;
75548;SDS011;64133;56.002;37.208;2022-12-18T07:49:19;5.55;;;3.30;;
75548;SDS011;64133;56.002;37.208;2022-12-18T07:54:24;5.25;;;2.75;;
75548;SDS011;64133;56.002;37.208;2022-12-18T07:59:28;6.40;;;3.20;;
75548;SDS011;64133;56.002;37.208;2022-12-18T08:04:33;5.00;;;2.45;;
75548;SDS011;64133;56.002;37.208;2022-12-18T08:09:39;4.87;;;2.35;;
75548;SDS011;64133;56.002;37.208;2022-12-18T08:14:44;5.62;;;2.50;;
75548;SDS011;64133;56.002;37.208;2022-12-18T08:19:48;6.50;;;2.77;;
75548;SDS011;64133;56.002;37.208;2022-12-18T08:24:53;7.72;;;3.02;;
75548;SDS011;64133;56.002;37.208;2022-12-18T08:29:58;6.78;;;2.60;;
75548;SDS011;64133;56.002;37.208;2022-12-18T08:35:02;1.75;;;0.93;;
75548;SDS011;64133;56.002;37.208;2022-12-18T08:40:09;3.22;;;2.17;;
75548;SDS011;64133;56.002;37.208;2022-12-18T08:45:14;1.90;;;0.78;;
75548;SDS011;64133;56.002;37.208;2022-12-18T08:50:19;4.87;;;2.83;;
75548;SDS011;64133;56.002;37.208;2022-12-18T08:55:24;3.92;;;2.25;;
75548;SDS011;64133;56.002;37.208;2022-12-18T09:00:29;5.50;;;2.72;;
75548;SDS011;64133;56.002;37.208;2022-12-18T09:05:33;4.85;;;3.00;;
75548;SDS011;64133;56.002;37.208;2022-12-18T09:10:42;6.45;;;3.47;;
75548;SDS011;64133;56.002;37.208;2022-12-18T09:15:47;4.60;;;2.37;;
75548;SDS011;64133;56.002;37.208;2022-12-18T09:20:51;6.33;;;2.77;;
75548;SDS011;64133;56.002;37.208;2022-12-18T09:25:59;5.12;;;2.80;;
75548;SDS011;64133;56.002;37.208;2022-12-18T09:31:05;4.85;;;2.45;;
75548;SDS011;64133;56.002;37.208;2022-12-18T09:36:10;1.90;;;1.07;;
75548;SDS011;64133;56.002;37.208;2022-12-18T09:41:18;6.53;;;2.47;;
75548;SDS011;64133;56.002;37.208;2022-12-18T09:46:23;3.40;;;2.58;;
75548;SDS011;64133;56.002;37.208;2022-12-18T09:56:31;4.80;;;2.42;;
75548;SDS011;64133;56.002;37.208;2022-12-18T10:01:36;3.22;;;2.20;;
75548;SDS011;64133;56.002;37.208;2022-12-18T10:06:42;3.60;;;1.57;;
75548;SDS011;64133;56.002;37.208;2022-12-18T10:11:48;3.90;;;2.33;;
75548;SDS011;64133;56.002;37.208;2022-12-18T10:16:56;7.83;;;2.58;;
75548;SDS011;64133;56.002;37.208;2022-12-18T10:22:01;4.45;;;2.67;;
75548;SDS011;64133;56.002;37.208;2022-12-18T10:27:11;17.23;;;4.50;;
75548;SDS011;64133;56.002;37.208;2022-12-18T10:32:16;5.67;;;2.25;;
75548;SDS011;64133;56.002;37.208;2022-12-18T10:42:24;4.03;;;1.80;;
75548;SDS011;64133;56.002;37.208;2022-12-18T10:47:28;4.37;;;2.45;;
75548;SDS011;64133;56.002;37.208;2022-12-18T10:52:33;3.62;;;1.90;;
75548;SDS011;64133;56.002;37.208;2022-12-18T10:57:38;5.85;;;2.22;;
75548;SDS011;64133;56.002;37.208;2022-12-18T11:02:42;4.45;;;1.92;;
75548;SDS011;64133;56.002;37.208;2022-12-18T11:07:48;5.97;;;2.92;;
75548;SDS011;64133;56.002;37.208;2022-12-18T11:12:52;4.37;;;1.95;;
75548;SDS011;64133;56.002;37.208;2022-12-18T11:18:14;4.25;;;2.00;;
75548;SDS011;64133;56.002;37.208;2022-12-18T11:23:21;2.22;;;1.50;;
75548;SDS011;64133;56.002;37.208;2022-12-18T11:28:27;5.95;;;2.12;;
75548;SDS011;64133;56.002;37.208;2022-12-18T11:33:32;1.77;;;0.60;;
75548;SDS011;64133;56.002;37.208;2022-12-18T11:38:37;3.92;;;1.87;;
75548;SDS011;64133;56.002;37.208;2022-12-18T11:43:43;3.58;;;1.55;;
75548;SDS011;64133;56.002;37.208;2022-12-18T11:48:48;8.60;;;3.17;;
75548;SDS011;64133;56.002;37.208;2022-12-18T11:53:52;6.58;;;3.02;;
75548;SDS011;64133;56.002;37.208;2022-12-18T11:58:59;6.30;;;3.60;;
75548;SDS011;64133;56.002;37.208;2022-12-18T12:09:51;9.70;;;3.80;;
75548;SDS011;64133;56.002;37.208;2022-12-18T12:14:57;10.00;;;4.33;;
75548;SDS011;64133;56.002;37.208;2022-12-18T12:20:02;8.93;;;3.15;;
75548;SDS011;64133;56.002;37.208;2022-12-18T12:25:10;10.00;;;3.98;;
75548;SDS011;64133;56.002;37.208;2022-12-18T12:30:18;13.20;;;5.50;;
75548;SDS011;64133;56.002;37.208;2022-12-18T12:35:25;13.60;;;5.40;;
75548;SDS011;64133;56.002;37.208;2022-12-18T12:40:31;14.15;;;5.58;;
75548;SDS011;64133;56.002;37.208;2022-12-18T12:45:37;9.23;;;4.22;;
75548;SDS011;64133;56.002;37.208;2022-12-18T12:50:40;15.25;;;6.37;;
75548;SDS011;64133;56.002;37.208;2022-12-18T12:55:45;12.85;;;4.58;;
75548;SDS011;64133;56.002;37.208;2022-12-18T13:00:52;10.03;;;4.15;;
75548;SDS011;64133;56.002;37.208;2022-12-18T13:05:57;12.93;;;4.97;;
75548;SDS011;64133;56.002;37.208;2022-12-18T13:11:03;9.65;;;4.20;;
75548;SDS011;64133;56.002;37.208;2022-12-18T13:16:30;9.65;;;4.65;;
75548;SDS011;64133;56.002;37.208;2022-12-18T13:21:34;8.15;;;3.22;;
75548;SDS011;64133;56.002;37.208;2022-12-18T13:26:39;7.05;;;2.90;;
75548;SDS011;64133;56.002;37.208;2022-12-18T13:37:42;6.67;;;2.27;;
75548;SDS011;64133;56.002;37.208;2022-12-18T13:42:47;8.28;;;4.37;;
75548;SDS011;64133;56.002;37.208;2022-12-18T13:48:27;8.85;;;3.70;;
75548;SDS011;64133;56.002;37.208;2022-12-18T13:53:34;6.75;;;3.20;;
75548;SDS011;64133;56.002;37.208;2022-12-18T13:58:38;8.10;;;5.20;;
75548;SDS011;64133;56.002;37.208;2022-12-18T14:03:43;6.10;;;2.72;;
75548;SDS011;64133;56.002;37.208;2022-12-18T14:08:48;3.47;;;2.30;;
75548;SDS011;64133;56.002;37.208;2022-12-18T14:13:53;6.35;;;2.90;;
75548;SDS011;64133;56.002;37.208;2022-12-18T14:18:57;6.60;;;2.98;;
75548;SDS011;64133;56.002;37.208;2022-12-18T14:24:06;8.33;;;3.20;;
75548;SDS011;64133;56.002;37.208;2022-12-18T14:29:24;7.92;;;3.75;;
75548;SDS011;64133;56.002;37.208;2022-12-18T14:34:28;7.60;;;2.87;;
75548;SDS011;64133;56.002;37.208;2022-12-18T14:39:33;6.10;;;3.12;;
75548;SDS011;64133;56.002;37.208;2022-12-18T14:44:38;6.30;;;3.37;;
75548;SDS011;64133;56.002;37.208;2022-12-18T14:49:43;7.95;;;3.70;;
75548;SDS011;64133;56.002;37.208;2022-12-18T14:54:47;7.30;;;4.08;;
75548;SDS011;64133;56.002;37.208;2022-12-18T14:59:52;6.53;;;3.85;;
75548;SDS011;64133;56.002;37.208;2022-12-18T15:05:00;6.17;;;3.02;;
75548;SDS011;64133;56.002;37.208;2022-12-18T15:10:09;8.48;;;3.70;;
75548;SDS011;64133;56.002;37.208;2022-12-18T15:20:50;4.17;;;1.90;;
75548;SDS011;64133;56.002;37.208;2022-12-18T15:25:57;8.38;;;4.10;;
75548;SDS011;64133;56.002;37.208;2022-12-18T15:31:03;6.90;;;3.33;;
75548;SDS011;64133;56.002;37.208;2022-12-18T15:36:09;3.52;;;2.08;;
75548;SDS011;64133;56.002;37.208;2022-12-18T15:41:14;8.33;;;4.55;;
75548;SDS011;64133;56.002;37.208;2022-12-18T15:46:33;7.20;;;3.52;;
75548;SDS011;64133;56.002;37.208;2022-12-18T15:51:38;7.33;;;2.67;;
75548;SDS011;64133;56.002;37.208;2022-12-18T15:56:43;7.35;;;3.02;;
75548;SDS011;64133;56.002;37.208;2022-12-18T16:02:08;0.95;;;0.45;;
75548;SDS011;64133;56.002;37.208;2022-12-18T16:07:15;2.75;;;1.52;;
75548;SDS011;64133;56.002;37.208;2022-12-18T16:12:21;7.70;;;3.50;;
75548;SDS011;64133;56.002;37.208;2022-12-18T16:17:25;9.50;;;4.03;;
75548;SDS011;64133;56.002;37.208;2022-12-18T16:22:33;5.72;;;2.25;;
75548;SDS011;64133;56.002;37.208;2022-12-18T16:27:38;10.13;;;4.08;;
75548;SDS011;64133;56.002;37.208;2022-12-18T16:32:43;7.20;;;3.55;;
75548;SDS011;64133;56.002;37.208;2022-12-18T16:37:47;7.62;;;3.42;;
75548;SDS011;64133;56.002;37.208;2022-12-18T16:42:52;6.25;;;3.50;;
75548;SDS011;64133;56.002;37.208;2022-12-18T16:47:59;9.03;;;3.33;;
75548;SDS011;64133;56.002;37.208;2022-12-18T16:53:03;7.33;;;3.50;;
75548;SDS011;64133;56.002;37.208;2022-12-18T16:58:08;10.20;;;4.90;;
75548;SDS011;64133;56.002;37.208;2022-12-18T17:03:13;9.95;;;4.35;;
75548;SDS011;64133;56.002;37.208;2022-12-18T17:08:18;10.98;;;4.72;;
75548;SDS011;64133;56.002;37.208;2022-12-18T17:13:26;11.55;;;4.28;;
75548;SDS011;64133;56.002;37.208;2022-12-18T17:18:31;5.03;;;1.27;;
75548;SDS011;64133;56.002;37.208;2022-12-18T17:23:35;7.17;;;3.42;;
75548;SDS011;64133;56.002;37.208;2022-12-18T17:28:40;9.88;;;3.70;;
75548;SDS011;64133;56.002;37.208;2022-12-18T17:33:52;12.40;;;4.92;;
75548;SDS011;64133;56.002;37.208;2022-12-18T17:38:57;8.55;;;3.37;;
75548;SDS011;64133;56.002;37.208;2022-12-18T17:44:02;4.92;;;1.95;;
75548;SDS011;64133;56.002;37.208;2022-12-18T17:49:06;13.62;;;5.92;;
75548;SDS011;64133;56.002;37.208;2022-12-18T17:54:11;10.63;;;4.75;;
75548;SDS011;64133;56.002;37.208;2022-12-18T17:59:16;12.73;;;5.45;;
75548;SDS011;64133;56.002;37.208;2022-12-18T18:04:21;11.15;;;4.60;;
75548;SDS011;64133;56.002;37.208;2022-12-18T18:09:26;19.27;;;5.87;;
75548;SDS011;64133;56.002;37.208;2022-12-18T18:14:31;15.72;;;6.50;;
75548;SDS011;64133;56.002;37.208;2022-12-18T18:24:39;9.13;;;4.10;;
75548;SDS011;64133;56.002;37.208;2022-12-18T18:29:45;11.78;;;5.95;;
75548;SDS011;64133;56.002;37.208;2022-12-18T18:34:49;12.40;;;4.85;;
75548;SDS011;64133;56.002;37.208;2022-12-18T18:39:55;9.45;;;5.03;;
75548;SDS011;64133;56.002;37.208;2022-12-18T18:44:59;15.32;;;5.42;;
75548;SDS011;64133;56.002;37.208;2022-12-18T18:50:06;11.25;;;5.20;;
75548;SDS011;64133;56.002;37.208;2022-12-18T18:55:11;7.12;;;3.02;;
75548;SDS011;64133;56.002;37.208;2022-12-18T19:05:56;14.00;;;5.92;;
75548;SDS011;64133;56.002;37.208;2022-12-18T19:11:01;21.45;;;7.65;;
75548;SDS011;64133;56.002;37.208;2022-12-18T19:16:07;19.90;;;7.95;;
75548;SDS011;64133;56.002;37.208;2022-12-18T19:21:11;16.23;;;6.85;;
75548;SDS011;64133;56.002;37.208;2022-12-18T19:26:16;9.80;;;4.33;;
75548;SDS011;64133;56.002;37.208;2022-12-18T19:31:20;18.32;;;6.90;;
75548;SDS011;64133;56.002;37.208;2022-12-18T19:36:25;13.78;;;5.17;;
75548;SDS011;64133;56.002;37.208;2022-12-18T19:41:30;8.33;;;3.75;;
75548;SDS011;64133;56.002;37.208;2022-12-18T19:46:34;12.15;;;5.20;;
75548;SDS011;64133;56.002;37.208;2022-12-18T19:51:39;14.23;;;5.97;;
75548;SDS011;64133;56.002;37.208;2022-12-18T19:56:45;12.43;;;5.60;;
75548;SDS011;64133;56.002;37.208;2022-12-18T20:01:50;19.12;;;6.58;;
75548;SDS011;64133;56.002;37.208;2022-12-18T20:06:55;15.53;;;6.60;;
75548;SDS011;64133;56.002;37.208;2022-12-18T20:12:00;13.60;;;6.00;;
75548;SDS011;64133;56.002;37.208;2022-12-18T20:17:04;12.98;;;4.92;;
75548;SDS011;64133;56.002;37.208;2022-12-18T20:22:09;10.58;;;4.83;;
75548;SDS011;64133;56.002;37.208;2022-12-18T20:27:14;10.98;;;4.33;;
75548;SDS011;64133;56.002;37.208;2022-12-18T20:32:18;11.85;;;5.30;;
75548;SDS011;64133;56.002;37.208;2022-12-18T20:37:23;11.95;;;4.55;;
75548;SDS011;64133;56.002;37.208;2022-12-18T20:42:28;11.03;;;4.45;;
75548;SDS011;64133;56.002;37.208;2022-12-18T20:47:33;9.18;;;3.87;;
75548;SDS011;64133;56.002;37.208;2022-12-18T20:52:37;9.30;;;4.25;;
75548;SDS011;64133;56.002;37.208;2022-12-18T20:57:42;7.78;;;3.45;;
75548;SDS011;64133;56.002;37.208;2022-12-18T21:02:47;5.28;;;2.50;;
75548;SDS011;64133;56.002;37.208;2022-12-18T21:07:52;13.32;;;4.25;;
75548;SDS011;64133;56.002;37.208;2022-12-18T21:12:56;8.25;;;3.52;;
75548;SDS011;64133;56.002;37.208;2022-12-18T21:18:01;8.50;;;3.58;;
75548;SDS011;64133;56.002;37.208;2022-12-18T21:23:06;8.30;;;4.40;;
75548;SDS011;64133;56.002;37.208;2022-12-18T21:28:10;8.35;;;3.37;;
75548;SDS011;64133;56.002;37.208;2022-12-18T21:33:15;8.78;;;3.60;;
75548;SDS011;64133;56.002;37.208;2022-12-18T21:38:20;4.00;;;2.00;;
75548;SDS011;64133;56.002;37.208;2022-12-18T21:43:24;6.90;;;2.77;;
75548;SDS011;64133;56.002;37.208;2022-12-18T21:48:47;4.75;;;2.77;;
75548;SDS011;64133;56.002;37.208;2022-12-18T21:53:51;5.67;;;2.92;;
75548;SDS011;64133;56.002;37.208;2022-12-18T21:58:59;6.65;;;3.62;;
75548;SDS011;64133;56.002;37.208;2022-12-18T22:04:03;2.77;;;1.45;;
75548;SDS011;64133;56.002;37.208;2022-12-18T22:09:09;2.83;;;1.70;;
75548;SDS011;64133;56.002;37.208;2022-12-18T22:14:13;3.58;;;2.87;;
75548;SDS011;64133;56.002;37.208;2022-12-18T22:19:18;5.15;;;2.80;;
75548;SDS011;64133;56.002;37.208;2022-12-18T22:24:23;5.50;;;1.98;;
75548;SDS011;64133;56.002;37.208;2022-12-18T22:29:27;5.37;;;2.60;;
75548;SDS011;64133;56.002;37.208;2022-12-18T22:34:50;6.42;;;3.12;;
75548;SDS011;64133;56.002;37.208;2022-12-18T22:39:54;6.87;;;2.33;;
75548;SDS011;64133;56.002;37.208;2022-12-18T22:44:59;5.33;;;2.25;;
75548;SDS011;64133;56.002;37.208;2022-12-18T22:50:04;3.12;;;1.70;;
75548;SDS011;64133;56.002;37.208;2022-12-18T22:55:12;4.67;;;2.50;;
75548;SDS011;64133;56.002;37.208;2022-12-18T23:00:17;4.22;;;1.98;;
75548;SDS011;64133;56.002;37.208;2022-12-18T23:05:22;5.28;;;2.25;;
75548;SDS011;64133;56.002;37.208;2022-12-18T23:10:26;3.87;;;1.75;;
75548;SDS011;64133;56.002;37.208;2022-12-18T23:15:31;6.37;;;2.75;;
75548;SDS011;64133;56.002;37.208;2022-12-18T23:20:36;5.75;;;2.60;;
75548;SDS011;64133;56.002;37.208;2022-12-18T23:25:40;6.00;;;2.50;;
75548;SDS011;64133;56.002;37.208;2022-12-18T23:30:45;5.00;;;2.00;;
75548;SDS011;64133;56.002;37.208;2022-12-18T23:35:50;4.67;;;2.67;;
75548;SDS011;64133;56.002;37.208;2022-12-18T23:40:54;4.55;;;1.65;;
75548;SDS011;64133;56.002;37.208;2022-12-18T23:45:59;2.95;;;1.37;;
75548;SDS011;64133;56.002;37.208;2022-12-18T23:51:04;4.05;;;1.90;;
75548;SDS011;64133;56.002;37.208;2022-12-18T23:56:10;3.60;;;2.02;;
